KRSN

Ruston Regional Airport

Ruston, Louisiana, USA
METAR KRSN 151855Z AUTO 20011G18KT 10SM BKN018 OVC027 21/15 A2977 RMK AO2 T02070153
Observed Flight Rules
Feb-15 @ 18:55 UTC (17 minutes ago) Marginal Visual Flight Rules
Wind Visibility Clouds
200° at 11 knots
 Gusting to 18 knots
10 miles
  • Broken at 1,800' AGL
  • Overcast at 2,700' AGL
Temperatures Readings
Current 21°C / 70°F
Dewpoint 15°C / 59°F
Humidity 69%
Altimeter 29.77" Hg
Pressure 1008.12 hPa
Elevation 95
METAR KRSN 151855Z AUTO 20011G18KT 10SM BKN018 OVC027 21/15 A2977 RMK AO2 T02070153
Observed Flight Rules
Feb-15 @ 18:55 UTC
(17 minutes ago)
MVFR
Wind Visibility
200° at 11 knots
 Gusting to 18 knots
10 miles
Clouds
  • Broken at 1,800' AGL
  • Overcast at 2,700' AGL
Temperature Dewpoint
21°C / 70°F 15°C / 59°F
Humidity Altimeter Pressure
69% 29.77" Hg 1008.12 hPa